Stotesbury, Missouri
Current Conditions -  °F | °C
As of 12:35 PM on Saturday 20 Dec 2014 (Local Time) from KPTS Reporting Station
Overcast Overcast  
Wind Chill: 35°   Ceiling: 1600
Heat Index: 41°   Visibility: 10mi
Dew Point: 36°   Wind: 10mph
Humidity: 83%   Direction: 250°WSW
Pressure: 30.19"   Gusts: NA
Location:  38.0389°N, 94.5457°W
Report Text: KPTS 201835Z AUTO 25009KT 10SM OVC016 05/02 A3019 RMK AO2 T00500024
Loading
Personal Weather Stations






























Interactive Weather Map New forecast layout! Learn more

10-Day Weather Forecast

Advertisements
Track Severe Weather on mobile